createdAt,value
2019-04-14T00:01:23.768Z,16.90
2019-04-14T00:04:05.114Z,19.20
2019-04-14T00:06:35.759Z,18.80
2019-04-14T00:09:08.039Z,18.50
2019-04-14T00:11:43.638Z,18.90
2019-04-14T00:14:14.064Z,18.10
2019-04-14T00:16:44.503Z,18.70
2019-04-14T00:19:13.682Z,22.20
2019-04-14T00:21:43.854Z,20.00
2019-04-14T00:24:14.034Z,17.10
2019-04-14T00:26:44.522Z,16.40
2019-04-14T00:29:15.166Z,16.00
2019-04-14T00:31:45.549Z,17.70
2019-04-14T00:34:16.348Z,16.80
2019-04-14T00:36:50.199Z,16.70
2019-04-14T00:39:30.031Z,17.10
2019-04-14T00:42:03.324Z,18.20
2019-04-14T00:44:40.853Z,18.50
2019-04-14T00:47:15.665Z,18.60
2019-04-14T00:49:46.160Z,18.60
2019-04-14T00:52:16.705Z,19.80
2019-04-14T00:54:47.766Z,20.60
2019-04-14T00:57:17.988Z,20.80
2019-04-14T00:59:48.643Z,21.10
2019-04-14T01:02:18.817Z,20.40
2019-04-14T01:04:49.017Z,20.10
2019-04-14T01:07:19.509Z,22.30
2019-04-14T01:09:49.403Z,21.00
2019-04-14T01:12:19.198Z,22.60
2019-04-14T01:14:49.568Z,23.00
2019-04-14T01:17:19.889Z,24.90
2019-04-14T01:19:49.098Z,23.00
2019-04-14T01:22:18.444Z,23.80
2019-04-14T01:24:48.904Z,23.40
2019-04-14T01:27:18.928Z,22.80
2019-04-14T01:29:49.435Z,24.10
2019-04-14T01:32:19.671Z,25.20
2019-04-14T01:34:51.188Z,26.70
2019-04-14T01:37:20.163Z,27.40
2019-04-14T01:39:50.207Z,31.40
2019-04-14T01:42:20.309Z,31.90
2019-04-14T01:44:50.275Z,35.70
2019-04-14T01:47:20.562Z,39.70
2019-04-14T01:49:50.776Z,44.80
2019-04-14T01:52:38.510Z,47.10
2019-04-14T01:55:18.598Z,50.70
2019-04-14T01:57:50.302Z,53.50
2019-04-14T02:00:20.941Z,57.30
2019-04-14T02:02:50.910Z,60.60
2019-04-14T02:05:21.315Z,61.00
2019-04-14T02:07:51.601Z,62.70
2019-04-14T02:10:21.873Z,64.20
2019-04-14T02:12:51.774Z,64.80
2019-04-14T02:15:22.174Z,66.20
2019-04-14T02:17:52.436Z,66.40
2019-04-14T02:20:22.834Z,67.50
2019-04-14T02:22:53.132Z,67.90
2019-04-14T02:25:23.097Z,68.80
2019-04-14T02:27:53.580Z,70.40
2019-04-14T02:30:33.997Z,72.20
2019-04-14T02:33:33.117Z,73.10
2019-04-14T02:36:06.309Z,73.80
2019-04-14T02:38:33.834Z,75.30
2019-04-14T02:43:31.697Z,75.90
2019-04-14T02:45:59.642Z,75.80
2019-04-14T02:51:04.238Z,75.30
2019-04-14T02:53:39.495Z,75.70
2019-04-14T02:58:40.310Z,78.20
2019-04-14T03:01:07.219Z,78.10
2019-04-14T03:03:39.191Z,77.50
2019-04-14T03:11:09.538Z,79.10
2019-04-14T03:13:35.097Z,79.50
2019-04-14T03:18:53.800Z,80.70
2019-04-14T03:24:18.538Z,81.20
2019-04-14T03:27:04.968Z,81.50
2019-04-14T03:29:36.455Z,81.40
2019-04-14T03:32:39.682Z,81.00
2019-04-14T03:34:52.038Z,80.80
2019-04-14T03:39:51.388Z,79.30
2019-04-14T03:42:22.322Z,79.40
2019-04-14T03:44:56.374Z,78.90
2019-04-14T03:47:13.899Z,77.90
2019-04-14T03:50:00.735Z,77.10
2019-04-14T03:52:14.933Z,76.30
2019-04-14T03:54:42.650Z,76.60
2019-04-14T03:56:55.655Z,77.00
2019-04-14T03:59:26.015Z,77.40
2019-04-14T04:01:56.430Z,78.80
2019-04-14T04:04:27.334Z,79.70
2019-04-14T04:06:57.493Z,80.10
2019-04-14T04:09:37.246Z,80.50
2019-04-14T04:12:07.504Z,80.70
2019-04-14T04:14:37.709Z,81.10
2019-04-14T04:17:08.665Z,80.80
2019-04-14T04:19:55.625Z,80.90
2019-04-14T04:22:43.544Z,80.20
2019-04-14T04:25:21.065Z,80.80
2019-04-14T04:27:54.752Z,80.00
2019-04-14T04:30:25.678Z,80.80
2019-04-14T04:33:00.059Z,81.10
2019-04-14T04:35:46.390Z,81.00
2019-04-14T04:38:18.015Z,81.20
2019-04-14T04:40:48.589Z,81.80
2019-04-14T04:43:18.922Z,82.00
2019-04-14T04:45:49.448Z,82.10
2019-04-14T04:48:19.655Z,82.00
2019-04-14T04:50:49.789Z,81.70
2019-04-14T04:53:29.152Z,81.40
2019-04-14T04:55:59.309Z,80.50
2019-04-14T04:58:30.464Z,79.40
2019-04-14T05:01:01.296Z,78.20
2019-04-14T05:03:31.730Z,77.50
2019-04-14T05:06:09.090Z,76.40
2019-04-14T05:08:41.234Z,76.10
2019-04-14T05:11:21.031Z,75.20
2019-04-14T05:13:51.423Z,74.60
2019-04-14T05:16:21.428Z,75.20
2019-04-14T05:18:53.030Z,74.30
2019-04-14T05:21:23.509Z,75.00
2019-04-14T05:23:53.771Z,75.70
2019-04-14T05:26:24.377Z,75.40
2019-04-14T05:28:54.775Z,75.50
2019-04-14T05:31:27.268Z,74.70
2019-04-14T05:33:55.474Z,74.60
2019-04-14T05:36:25.946Z,74.20
2019-04-14T05:38:56.589Z,73.90
2019-04-14T05:41:26.532Z,74.20
2019-04-14T05:43:58.872Z,74.90
2019-04-14T05:46:27.398Z,75.20
2019-04-14T05:48:57.781Z,75.40
2019-04-14T05:51:28.318Z,75.80
2019-04-14T05:53:57.661Z,76.10
2019-04-14T05:56:27.497Z,76.80
2019-04-14T05:58:57.993Z,75.80
2019-04-14T06:01:27.485Z,75.80
2019-04-14T06:03:58.174Z,76.10
2019-04-14T06:06:27.667Z,75.60
2019-04-14T06:08:57.125Z,75.20
2019-04-14T06:11:26.925Z,75.90
2019-04-14T06:13:56.511Z,75.80
2019-04-14T06:16:25.658Z,76.10
2019-04-14T06:18:54.881Z,75.30
2019-04-14T06:21:24.233Z,75.20
2019-04-14T06:23:53.765Z,75.10
2019-04-14T06:26:23.372Z,74.80
2019-04-14T06:28:53.276Z,75.20
2019-04-14T06:31:27.475Z,75.40
2019-04-14T06:34:01.347Z,75.60
2019-04-14T06:36:49.216Z,76.30
2019-04-14T06:39:26.146Z,77.00
2019-04-14T06:41:55.505Z,77.40
2019-04-14T06:44:24.899Z,77.90
2019-04-14T06:46:54.828Z,77.40
2019-04-14T06:49:24.022Z,78.00
2019-04-14T06:51:53.357Z,78.90
2019-04-14T06:54:22.668Z,78.10
2019-04-14T06:56:51.872Z,77.80
2019-04-14T06:59:21.837Z,77.90
2019-04-14T07:01:51.172Z,78.00
2019-04-14T07:04:20.626Z,78.40
2019-04-14T07:06:51.517Z,78.40
2019-04-14T07:09:20.841Z,78.10
2019-04-14T07:11:50.097Z,77.80
2019-04-14T07:14:19.780Z,78.50
2019-04-14T07:16:51.450Z,79.60
2019-04-14T07:19:20.901Z,79.80
2019-04-14T07:21:50.178Z,80.50
2019-04-14T07:24:19.468Z,81.20
2019-04-14T07:26:52.529Z,81.70
2019-04-14T07:29:25.404Z,81.70
2019-04-14T07:32:01.883Z,81.60
2019-04-14T07:34:36.435Z,81.30
2019-04-14T07:37:23.802Z,81.70
2019-04-14T07:39:57.245Z,81.20
2019-04-14T07:42:44.957Z,81.10
2019-04-14T07:45:24.535Z,80.60
2019-04-14T07:47:58.613Z,80.30
2019-04-14T07:50:29.446Z,79.50
2019-04-14T07:53:00.135Z,79.50
2019-04-14T07:55:48.102Z,79.90
2019-04-14T07:58:35.688Z,80.20
2019-04-14T08:01:16.786Z,79.90
2019-04-14T08:03:47.932Z,80.50
2019-04-14T08:06:17.146Z,79.40
2019-04-14T08:08:46.497Z,79.80
2019-04-14T08:11:15.638Z,80.20
2019-04-14T08:13:44.915Z,80.20
2019-04-14T08:16:14.369Z,80.80
2019-04-14T08:18:43.622Z,80.80
2019-04-14T08:21:13.242Z,81.50
2019-04-14T08:23:42.664Z,81.10
2019-04-14T08:26:12.088Z,81.60
2019-04-14T08:28:41.153Z,81.50
2019-04-14T08:31:10.388Z,81.30
2019-04-14T08:33:39.539Z,81.20
2019-04-14T08:36:08.997Z,81.70
2019-04-14T08:38:39.680Z,82.20
2019-04-14T08:41:08.905Z,82.20
2019-04-14T08:43:56.799Z,82.50
2019-04-14T08:46:27.606Z,82.50
2019-04-14T08:49:04.170Z,83.10
2019-04-14T08:51:47.227Z,83.20
2019-04-14T08:54:18.355Z,83.30
2019-04-14T08:56:51.483Z,83.40
2019-04-14T08:59:28.219Z,83.50
2019-04-14T09:01:59.451Z,83.80
2019-04-14T09:04:30.113Z,85.00
2019-04-14T09:07:03.925Z,84.50
2019-04-14T09:09:35.778Z,85.40
2019-04-14T09:12:15.518Z,85.60
2019-04-14T09:14:37.684Z,85.40
2019-04-14T09:17:06.945Z,85.30
2019-04-14T09:19:36.346Z,85.40
2019-04-14T09:22:05.484Z,86.00
2019-04-14T09:24:34.833Z,85.70
2019-04-14T09:27:03.717Z,86.00
2019-04-14T09:29:32.626Z,86.30
2019-04-14T09:32:02.826Z,86.00
2019-04-14T09:34:32.111Z,86.20
2019-04-14T09:37:01.479Z,86.00
2019-04-14T09:39:30.982Z,85.80
2019-04-14T09:42:01.352Z,85.60
2019-04-14T09:44:30.414Z,86.30
2019-04-14T09:46:59.574Z,86.40
2019-04-14T09:49:29.335Z,86.60
2019-04-14T09:51:58.717Z,86.50
2019-04-14T09:54:27.873Z,86.60
2019-04-14T09:56:57.282Z,86.80
2019-04-14T09:59:26.468Z,87.00
2019-04-14T10:01:55.815Z,87.60
2019-04-14T10:04:25.188Z,88.40
2019-04-14T10:06:54.303Z,88.40
2019-04-14T10:09:23.810Z,89.60
2019-04-14T10:11:56.327Z,89.40
2019-04-14T10:14:23.839Z,90.10
2019-04-14T10:16:53.385Z,90.00
2019-04-14T10:19:22.337Z,90.20
2019-04-14T10:21:51.747Z,90.30
2019-04-14T10:24:20.807Z,90.50
2019-04-14T10:26:51.030Z,90.20
2019-04-14T10:29:20.244Z,90.40
2019-04-14T10:31:49.522Z,90.50
2019-04-14T10:34:18.609Z,90.50
2019-04-14T10:36:47.603Z,90.50
2019-04-14T10:39:17.034Z,90.50
2019-04-14T10:41:46.445Z,90.60
2019-04-14T10:44:15.535Z,90.90
2019-04-14T10:46:45.070Z,90.90
2019-04-14T10:49:14.256Z,91.00
2019-04-14T10:51:43.843Z,91.30
2019-04-14T10:54:13.749Z,91.40
2019-04-14T10:56:42.965Z,91.80
2019-04-14T10:59:12.131Z,91.90
2019-04-14T11:01:42.494Z,92.20
2019-04-14T11:04:11.695Z,92.30
2019-04-14T11:06:46.031Z,92.60
2019-04-14T11:09:15.639Z,92.70
2019-04-14T11:11:44.647Z,92.90
2019-04-14T11:14:13.852Z,93.10
2019-04-14T11:16:43.035Z,93.30
2019-04-14T11:19:12.231Z,93.30
2019-04-14T11:21:43.107Z,93.70
2019-04-14T11:24:12.610Z,93.60
2019-04-14T11:26:41.803Z,93.70
2019-04-14T11:29:11.316Z,93.80
2019-04-14T11:31:54.381Z,94.00
2019-04-14T11:34:40.533Z,94.20
2019-04-14T11:37:17.752Z,94.20
2019-04-14T11:39:47.132Z,94.20
2019-04-14T11:42:16.182Z,94.30
2019-04-14T11:44:45.492Z,94.30
2019-04-14T11:47:16.260Z,94.30
2019-04-14T11:49:45.506Z,94.30
2019-04-14T11:52:14.481Z,94.70
2019-04-14T11:54:43.585Z,94.70
2019-04-14T11:57:12.559Z,94.80
2019-04-14T11:59:43.307Z,95.20
2019-04-14T12:02:17.111Z,95.50
2019-04-14T12:04:47.814Z,95.70
2019-04-14T12:07:18.808Z,95.70
2019-04-14T12:09:55.452Z,95.60
2019-04-14T12:12:24.804Z,95.90
2019-04-14T12:14:53.835Z,95.60
2019-04-14T12:17:23.042Z,95.50
2019-04-14T12:19:52.067Z,95.60
2019-04-14T12:22:20.980Z,95.60
2019-04-14T12:24:50.229Z,95.50
2019-04-14T12:27:20.345Z,95.40
2019-04-14T12:29:50.070Z,95.40
2019-04-14T12:32:19.779Z,95.50
2019-04-14T12:34:48.898Z,95.40
2019-04-14T12:37:18.196Z,95.10
2019-04-14T12:39:47.573Z,95.30
2019-04-14T12:42:21.102Z,95.20
2019-04-14T12:44:51.962Z,95.30
2019-04-14T12:47:22.724Z,95.20
2019-04-14T12:49:53.857Z,95.00
2019-04-14T12:52:27.533Z,95.00
2019-04-14T12:54:56.840Z,94.90
2019-04-14T12:57:27.692Z,94.90
2019-04-14T12:59:56.752Z,94.90
2019-04-14T13:02:27.452Z,95.10
2019-04-14T13:04:57.844Z,95.00
2019-04-14T13:07:27.034Z,95.00
2019-04-14T13:09:56.118Z,94.90
2019-04-14T13:12:25.349Z,94.80
2019-04-14T13:14:54.575Z,94.80
2019-04-14T13:17:25.037Z,94.60
2019-04-14T13:19:54.205Z,94.70
2019-04-14T13:22:33.285Z,94.80
2019-04-14T13:24:54.306Z,94.60
2019-04-14T13:27:23.366Z,94.80
2019-04-14T13:29:52.766Z,94.90
2019-04-14T13:32:22.091Z,94.70
2019-04-14T13:34:51.294Z,94.80
2019-04-14T13:37:20.680Z,94.60
2019-04-14T13:39:50.056Z,94.60
2019-04-14T13:42:19.388Z,94.70
2019-04-14T13:44:48.541Z,94.60
2019-04-14T13:47:17.999Z,94.70
2019-04-14T13:49:48.914Z,94.80
2019-04-14T13:52:19.442Z,94.90
2019-04-14T13:54:48.575Z,94.80
2019-04-14T13:57:17.742Z,95.00
2019-04-14T13:59:46.804Z,94.90
2019-04-14T14:02:16.144Z,95.00
2019-04-14T14:04:45.143Z,95.10
2019-04-14T14:07:14.130Z,95.00
2019-04-14T14:09:43.347Z,95.10
2019-04-14T14:12:26.590Z,95.20
2019-04-14T14:14:57.883Z,95.30
2019-04-14T14:17:28.678Z,95.20
2019-04-14T14:20:05.011Z,95.40
2019-04-14T14:22:59.261Z,95.50
2019-04-14T14:25:24.966Z,95.40
2019-04-14T14:27:53.974Z,95.70
2019-04-14T14:30:23.436Z,95.90
2019-04-14T14:32:53.657Z,95.50
2019-04-14T14:35:23.047Z,95.30
2019-04-14T14:37:52.202Z,95.10
2019-04-14T14:40:21.510Z,95.20
2019-04-14T14:42:51.012Z,95.00
2019-04-14T14:45:21.660Z,94.80
2019-04-14T14:47:52.602Z,94.50
2019-04-14T14:50:23.314Z,93.30
2019-04-14T14:52:52.449Z,93.00
2019-04-14T14:55:21.735Z,91.90
2019-04-14T14:57:52.077Z,91.30
2019-04-14T15:00:31.995Z,90.30
2019-04-14T15:03:01.851Z,88.60
2019-04-14T15:05:31.128Z,87.60
2019-04-14T15:08:00.623Z,82.90
2019-04-14T15:10:29.976Z,79.90
2019-04-14T15:12:59.122Z,77.40
2019-04-14T15:15:28.317Z,75.70
2019-04-14T15:17:57.522Z,75.50
2019-04-14T15:20:26.846Z,75.40
2019-04-14T15:22:56.216Z,73.30
2019-04-14T15:25:26.652Z,70.50
2019-04-14T15:27:55.581Z,71.20
2019-04-14T15:30:25.112Z,67.80
2019-04-14T15:32:54.772Z,65.20
2019-04-14T15:35:25.058Z,65.80
2019-04-14T15:37:54.685Z,65.50
2019-04-14T15:40:23.848Z,63.80
2019-04-14T15:42:54.041Z,64.10
2019-04-14T15:45:23.244Z,61.80
2019-04-14T15:47:52.202Z,61.00
2019-04-14T15:50:22.008Z,59.50
2019-04-14T15:52:50.859Z,58.30
2019-04-14T15:55:20.183Z,52.10
2019-04-14T15:57:53.862Z,48.70
2019-04-14T16:00:30.210Z,44.40
2019-04-14T16:03:16.711Z,39.10
2019-04-14T16:05:50.022Z,39.30
2019-04-14T16:08:23.371Z,39.00
2019-04-14T16:10:53.904Z,39.40
2019-04-14T16:13:26.167Z,33.70
2019-04-14T16:16:03.095Z,36.00
2019-04-14T16:18:51.545Z,33.80
2019-04-14T16:21:20.825Z,30.80
2019-04-14T16:23:51.007Z,31.40
2019-04-14T16:26:24.603Z,29.20
2019-04-14T16:28:58.803Z,27.10
2019-04-14T16:31:44.644Z,21.70
2019-04-14T16:34:20.819Z,21.30
2019-04-14T16:36:51.517Z,16.20
2019-04-14T16:39:20.780Z,17.30
2019-04-14T16:41:50.278Z,17.30
2019-04-14T16:44:19.633Z,17.60
2019-04-14T16:46:48.646Z,19.10
2019-04-14T16:49:17.880Z,14.20
2019-04-14T16:51:51.428Z,13.70
2019-04-14T16:54:37.200Z,16.00
2019-04-14T16:57:13.936Z,14.60
2019-04-14T16:59:43.179Z,14.60
2019-04-14T17:02:13.098Z,12.50
2019-04-14T17:04:42.635Z,15.50
2019-04-14T17:07:11.766Z,9.90
2019-04-14T17:09:40.874Z,10.80
2019-04-14T17:12:10.255Z,9.40
2019-04-14T17:14:56.814Z,3.50
2019-04-14T17:17:45.973Z,1.00
2019-04-14T17:20:23.240Z,5.00
2019-04-14T17:23:12.277Z,7.90
2019-04-14T17:25:42.914Z,1.00
2019-04-14T17:28:31.551Z,3.60
2019-04-14T17:31:14.381Z,2.10
2019-04-14T17:33:45.313Z,1.00
2019-04-14T17:36:32.556Z,1.00
2019-04-14T17:39:12.367Z,1.00
2019-04-14T17:41:43.018Z,1.00
2019-04-14T17:44:30.965Z,1.00
2019-04-14T17:47:01.884Z,1.00
2019-04-14T17:49:38.744Z,1.00
2019-04-14T17:52:25.946Z,1.00
2019-04-14T17:55:05.258Z,1.00
2019-04-14T17:57:44.904Z,1.00
2019-04-14T18:00:16.074Z,1.00
2019-04-14T18:03:03.665Z,1.00
2019-04-14T18:05:38.752Z,1.00
2019-04-14T18:08:09.597Z,1.00
2019-04-14T18:10:40.455Z,1.00
2019-04-14T18:13:11.269Z,1.00
2019-04-14T18:15:45.275Z,1.00
2019-04-14T18:18:16.034Z,1.00
2019-04-14T18:20:49.484Z,1.00
2019-04-14T18:23:18.679Z,1.00
2019-04-14T18:25:47.721Z,1.00
2019-04-14T18:28:31.052Z,1.00
2019-04-14T18:31:07.407Z,1.00
2019-04-14T18:33:56.898Z,1.00
2019-04-14T18:36:43.747Z,1.00
2019-04-14T18:39:20.881Z,1.00
2019-04-14T18:41:51.629Z,1.00
2019-04-14T18:44:28.687Z,1.00
2019-04-14T18:47:02.127Z,1.00
2019-04-14T18:49:36.524Z,1.00
2019-04-14T18:52:10.337Z,1.00
2019-04-14T18:54:54.843Z,1.00
2019-04-14T18:57:26.564Z,1.00
2019-04-14T19:00:04.178Z,1.00
2019-04-14T19:02:33.603Z,1.00
2019-04-14T19:05:04.162Z,1.00
2019-04-14T19:07:33.452Z,1.00
2019-04-14T19:10:02.887Z,1.00
2019-04-14T19:12:40.136Z,1.00
2019-04-14T19:15:20.108Z,1.00
2019-04-14T19:17:51.233Z,1.00
2019-04-14T19:20:23.510Z,1.00
2019-04-14T19:22:52.761Z,1.00
2019-04-14T19:25:22.242Z,1.00
2019-04-14T19:27:51.550Z,1.00
2019-04-14T19:30:20.710Z,1.00
2019-04-14T19:32:49.999Z,1.00
2019-04-14T19:35:19.124Z,1.00
2019-04-14T19:37:49.151Z,1.00
2019-04-14T19:40:18.659Z,1.00
2019-04-14T19:42:47.835Z,1.00
2019-04-14T19:45:17.026Z,1.00
2019-04-14T19:47:46.070Z,1.00
2019-04-14T19:50:15.217Z,1.00
2019-04-14T19:52:44.536Z,1.00
2019-04-14T19:55:20.268Z,1.00
2019-04-14T19:57:44.203Z,1.00
2019-04-14T20:00:13.691Z,1.00
2019-04-14T20:02:42.931Z,1.00
2019-04-14T20:05:12.020Z,1.00
2019-04-14T20:07:40.922Z,1.00
2019-04-14T20:10:11.577Z,1.00
2019-04-14T20:12:40.875Z,1.00
2019-04-14T20:15:11.630Z,1.00
2019-04-14T20:17:45.356Z,1.00
2019-04-14T20:20:29.512Z,1.00
2019-04-14T20:23:09.041Z,1.00
2019-04-14T20:25:42.415Z,1.00
2019-04-14T20:28:13.169Z,1.00
2019-04-14T20:30:44.317Z,1.00
2019-04-14T20:33:13.780Z,1.00
2019-04-14T20:35:42.996Z,1.00
2019-04-14T20:38:12.146Z,1.00
2019-04-14T20:40:41.584Z,1.00
2019-04-14T20:43:11.763Z,1.00
2019-04-14T20:45:41.115Z,1.00
2019-04-14T20:48:10.377Z,1.00
2019-04-14T20:50:39.804Z,1.00
2019-04-14T20:53:09.292Z,1.00
2019-04-14T20:55:46.661Z,1.00
2019-04-14T20:58:09.416Z,1.00
2019-04-14T21:00:38.652Z,1.00
2019-04-14T21:03:09.393Z,1.00
2019-04-14T21:05:43.722Z,1.00
2019-04-14T21:08:31.027Z,1.00
2019-04-14T21:11:04.515Z,1.00
2019-04-14T21:13:35.177Z,1.00
2019-04-14T21:16:21.286Z,1.00
2019-04-14T21:18:51.901Z,1.00
2019-04-14T21:21:41.367Z,1.00
2019-04-14T21:24:13.018Z,1.00
2019-04-14T21:26:52.900Z,1.00
2019-04-14T21:29:30.027Z,1.00
2019-04-14T21:32:06.990Z,1.00
2019-04-14T21:34:37.845Z,1.00
2019-04-14T21:37:08.362Z,1.00
2019-04-14T21:39:52.318Z,1.00
2019-04-14T21:42:21.954Z,1.00
2019-04-14T21:44:51.461Z,1.00
2019-04-14T21:47:20.717Z,1.00
2019-04-14T21:49:49.887Z,1.00
2019-04-14T21:52:23.613Z,1.00
2019-04-14T21:54:53.635Z,1.00
2019-04-14T21:57:30.644Z,1.00
2019-04-14T22:00:16.448Z,1.00
2019-04-14T22:03:02.744Z,1.00
2019-04-14T22:05:50.276Z,1.00
2019-04-14T22:08:37.983Z,1.00
2019-04-14T22:11:18.340Z,1.00
2019-04-14T22:13:47.484Z,1.00
2019-04-14T22:16:16.630Z,1.00
2019-04-14T22:18:45.741Z,1.00
2019-04-14T22:21:16.060Z,1.00
2019-04-14T22:23:45.234Z,1.00
2019-04-14T22:26:25.571Z,1.00
2019-04-14T22:28:46.610Z,1.00
2019-04-14T22:31:15.690Z,1.00
2019-04-14T22:33:44.616Z,1.00
2019-04-14T22:36:14.203Z,1.00
2019-04-14T22:38:44.820Z,1.00
2019-04-14T22:41:14.094Z,1.00
2019-04-14T22:43:43.165Z,1.00
2019-04-14T22:46:12.336Z,1.00
2019-04-14T22:48:42.879Z,1.00
2019-04-14T22:51:12.111Z,1.00
2019-04-14T22:53:41.403Z,1.00
2019-04-14T22:56:10.707Z,1.00
2019-04-14T22:58:40.004Z,1.00
2019-04-14T23:01:13.497Z,1.00
2019-04-14T23:03:56.583Z,1.00
2019-04-14T23:06:27.317Z,1.00
2019-04-14T23:09:13.597Z,1.00
2019-04-14T23:11:50.881Z,1.00
2019-04-14T23:14:36.772Z,1.00
2019-04-14T23:17:07.381Z,1.00
2019-04-14T23:19:38.314Z,1.00
2019-04-14T23:22:10.929Z,1.00
2019-04-14T23:24:45.638Z,1.00
2019-04-14T23:27:14.798Z,1.00
2019-04-14T23:29:43.929Z,1.00
2019-04-14T23:32:13.007Z,1.00
2019-04-14T23:34:43.381Z,1.00
2019-04-14T23:37:12.575Z,1.00
2019-04-14T23:39:42.145Z,1.00
2019-04-14T23:42:11.379Z,1.00
2019-04-14T23:44:40.358Z,1.00
2019-04-14T23:47:11.612Z,1.00
2019-04-14T23:49:40.791Z,1.00
2019-04-14T23:52:09.793Z,1.00
2019-04-14T23:54:38.987Z,1.00
2019-04-14T23:57:09.785Z,1.00
2019-04-14T23:59:39.039Z,1.00
